sensor_id;sensor_type;location;lat;lon;timestamp;pressure;altitude;pressure_sealevel;temperature;humidity
13027;BME280;6580;42.680;23.324;2023-04-03T00:00:16;94648.28;;;9.90;87.66
13027;BME280;6580;42.680;23.324;2023-04-03T00:03:02;94660.28;;;10.02;87.14
13027;BME280;6580;42.680;23.324;2023-04-03T00:05:47;94654.63;;;9.97;87.34
13027;BME280;6580;42.680;23.324;2023-04-03T00:08:33;94649.94;;;9.91;87.69
13027;BME280;6580;42.680;23.324;2023-04-03T00:11:20;94645.97;;;10.03;88.33
13027;BME280;6580;42.680;23.324;2023-04-03T00:14:06;94647.63;;;9.96;89.21
13027;BME280;6580;42.680;23.324;2023-04-03T00:16:53;94636.47;;;9.93;89.23
13027;BME280;6580;42.680;23.324;2023-04-03T00:19:39;94643.78;;;9.99;87.76
13027;BME280;6580;42.680;23.324;2023-04-03T00:22:24;94636.47;;;9.93;86.02
13027;BME280;6580;42.680;23.324;2023-04-03T00:25:12;94633.66;;;9.94;84.10
13027;BME280;6580;42.680;23.324;2023-04-03T00:27:58;94635.81;;;9.75;86.64
13027;BME280;6580;42.680;23.324;2023-04-03T00:30:44;94646.63;;;9.73;89.75
13027;BME280;6580;42.680;23.324;2023-04-03T00:33:31;94647.31;;;9.75;89.05
13027;BME280;6580;42.680;23.324;2023-04-03T00:36:17;94644.66;;;9.59;89.70
13027;BME280;6580;42.680;23.324;2023-04-03T00:39:02;94636.66;;;9.67;90.71
13027;BME280;6580;42.680;23.324;2023-04-03T00:41:48;94640.69;;;9.63;91.38
13027;BME280;6580;42.680;23.324;2023-04-03T00:47:52;94651.06;;;9.09;96.75
13027;BME280;6580;42.680;23.324;2023-04-03T00:50:41;94647.59;;;9.16;96.40
13027;BME280;6580;42.680;23.324;2023-04-03T00:53:31;94646.28;;;9.28;97.00
13027;BME280;6580;42.680;23.324;2023-04-03T00:56:19;94648.94;;;9.20;98.05
13027;BME280;6580;42.680;23.324;2023-04-03T00:59:11;94649.91;;;9.11;97.52
13027;BME280;6580;42.680;23.324;2023-04-03T01:01:58;94660.22;;;9.14;98.30
13027;BME280;6580;42.680;23.324;2023-04-03T01:04:45;94658.06;;;9.18;95.82
13027;BME280;6580;42.680;23.324;2023-04-03T01:07:33;94650.13;;;9.34;95.98
13027;BME280;6580;42.680;23.324;2023-04-03T01:10:21;94655.91;;;9.21;96.58
13027;BME280;6580;42.680;23.324;2023-04-03T01:13:19;94653.56;;;9.10;98.41
13027;BME280;6580;42.680;23.324;2023-04-03T01:16:06;94655.38;;;9.02;99.89
13027;BME280;6580;42.680;23.324;2023-04-03T01:18:52;94657.88;;;9.04;98.70
13027;BME280;6580;42.680;23.324;2023-04-03T01:22:08;94654.22;;;9.05;99.12
13027;BME280;6580;42.680;23.324;2023-04-03T01:25:18;94655.75;;;9.23;97.42
13027;BME280;6580;42.680;23.324;2023-04-03T01:28:04;94646.94;;;9.07;98.34
13027;BME280;6580;42.680;23.324;2023-04-03T01:30:53;94650.22;;;9.01;97.92
13027;BME280;6580;42.680;23.324;2023-04-03T01:33:42;94658.50;;;8.98;100.00
13027;BME280;6580;42.680;23.324;2023-04-03T01:36:31;94663.16;;;8.96;100.00
13027;BME280;6580;42.680;23.324;2023-04-03T01:39:17;94656.97;;;8.87;100.00
13027;BME280;6580;42.680;23.324;2023-04-03T01:42:02;94645.91;;;9.00;99.43
13027;BME280;6580;42.680;23.324;2023-04-03T01:44:48;94645.56;;;8.95;97.61
13027;BME280;6580;42.680;23.324;2023-04-03T01:47:34;94649.22;;;9.02;95.43
13027;BME280;6580;42.680;23.324;2023-04-03T01:50:24;94648.59;;;9.31;91.26
13027;BME280;6580;42.680;23.324;2023-04-03T01:53:10;94649.25;;;9.09;92.81
13027;BME280;6580;42.680;23.324;2023-04-03T01:55:56;94661.88;;;9.15;92.24
13027;BME280;6580;42.680;23.324;2023-04-03T01:58:41;94653.47;;;8.79;94.59
13027;BME280;6580;42.680;23.324;2023-04-03T02:01:26;94656.53;;;9.00;93.32
13027;BME280;6580;42.680;23.324;2023-04-03T02:04:12;94646.91;;;8.91;92.79
13027;BME280;6580;42.680;23.324;2023-04-03T02:06:59;94652.56;;;9.04;92.48
13027;BME280;6580;42.680;23.324;2023-04-03T02:09:45;94638.13;;;8.98;91.56
13027;BME280;6580;42.680;23.324;2023-04-03T02:12:30;94652.38;;;8.97;92.04
13027;BME280;6580;42.680;23.324;2023-04-03T02:15:16;94657.84;;;8.96;91.42
13027;BME280;6580;42.680;23.324;2023-04-03T02:18:01;94667.59;;;8.87;92.74
13027;BME280;6580;42.680;23.324;2023-04-03T02:20:49;94662.28;;;8.87;92.75
13027;BME280;6580;42.680;23.324;2023-04-03T02:23:36;94663.72;;;8.66;93.84
13027;BME280;6580;42.680;23.324;2023-04-03T02:26:21;94656.00;;;8.47;95.62
13027;BME280;6580;42.680;23.324;2023-04-03T02:29:07;94640.72;;;8.15;97.61
13027;BME280;6580;42.680;23.324;2023-04-03T02:31:53;94644.72;;;8.37;95.93
13027;BME280;6580;42.680;23.324;2023-04-03T02:34:39;94648.53;;;8.42;96.98
13027;BME280;6580;42.680;23.324;2023-04-03T02:37:25;94653.16;;;8.15;97.70
13027;BME280;6580;42.680;23.324;2023-04-03T02:40:12;94637.75;;;8.44;97.82
13027;BME280;6580;42.680;23.324;2023-04-03T02:42:58;94638.84;;;8.25;97.25
13027;BME280;6580;42.680;23.324;2023-04-03T02:45:45;94639.97;;;8.23;97.70
13027;BME280;6580;42.680;23.324;2023-04-03T02:48:30;94653.53;;;8.20;98.45
13027;BME280;6580;42.680;23.324;2023-04-03T02:51:16;94643.34;;;8.33;96.89
13027;BME280;6580;42.680;23.324;2023-04-03T02:54:01;94633.41;;;8.35;97.70
13027;BME280;6580;42.680;23.324;2023-04-03T02:56:49;94629.56;;;8.04;99.61
13027;BME280;6580;42.680;23.324;2023-04-03T02:59:35;94630.91;;;8.08;99.47
13027;BME280;6580;42.680;23.324;2023-04-03T03:02:21;94624.06;;;8.23;98.42
13027;BME280;6580;42.680;23.324;2023-04-03T03:05:08;94628.00;;;8.19;98.44
13027;BME280;6580;42.680;23.324;2023-04-03T03:07:55;94625.59;;;8.08;100.00
13027;BME280;6580;42.680;23.324;2023-04-03T03:10:40;94631.22;;;8.05;99.98
13027;BME280;6580;42.680;23.324;2023-04-03T03:13:30;94625.59;;;8.08;100.00
13027;BME280;6580;42.680;23.324;2023-04-03T03:16:16;94622.38;;;7.97;100.00
13027;BME280;6580;42.680;23.324;2023-04-03T03:19:02;94607.72;;;8.10;100.00
13027;BME280;6580;42.680;23.324;2023-04-03T03:21:48;94614.88;;;8.09;100.00
13027;BME280;6580;42.680;23.324;2023-04-03T03:24:35;94622.44;;;8.30;100.00
13027;BME280;6580;42.680;23.324;2023-04-03T03:27:21;94616.88;;;7.90;100.00
13027;BME280;6580;42.680;23.324;2023-04-03T03:30:10;94623.56;;;8.02;100.00
13027;BME280;6580;42.680;23.324;2023-04-03T03:32:55;94619.00;;;8.12;100.00
13027;BME280;6580;42.680;23.324;2023-04-03T03:35:41;94615.41;;;8.21;100.00
13027;BME280;6580;42.680;23.324;2023-04-03T03:38:27;94625.59;;;8.00;100.00
13027;BME280;6580;42.680;23.324;2023-04-03T03:41:12;94627.88;;;8.03;100.00
13027;BME280;6580;42.680;23.324;2023-04-03T03:43:57;94631.59;;;7.85;100.00
13027;BME280;6580;42.680;23.324;2023-04-03T03:46:44;94635.41;;;7.82;100.00
13027;BME280;6580;42.680;23.324;2023-04-03T03:49:29;94622.25;;;7.73;100.00
13027;BME280;6580;42.680;23.324;2023-04-03T03:52:14;94625.41;;;7.76;100.00
13027;BME280;6580;42.680;23.324;2023-04-03T03:55:00;94630.22;;;7.73;100.00
13027;BME280;6580;42.680;23.324;2023-04-03T03:57:45;94637.78;;;7.68;100.00
13027;BME280;6580;42.680;23.324;2023-04-03T04:00:31;94629.16;;;7.91;100.00
13027;BME280;6580;42.680;23.324;2023-04-03T04:03:18;94632.09;;;7.80;100.00
13027;BME280;6580;42.680;23.324;2023-04-03T04:06:04;94628.75;;;7.78;100.00
13027;BME280;6580;42.680;23.324;2023-04-03T04:08:50;94633.75;;;7.81;100.00
13027;BME280;6580;42.680;23.324;2023-04-03T04:11:36;94623.66;;;7.85;100.00
13027;BME280;6580;42.680;23.324;2023-04-03T04:14:23;94632.09;;;7.80;100.00
13027;BME280;6580;42.680;23.324;2023-04-03T04:17:09;94639.16;;;7.72;100.00
13027;BME280;6580;42.680;23.324;2023-04-03T04:19:58;94641.47;;;7.75;100.00
13027;BME280;6580;42.680;23.324;2023-04-03T04:22:43;94650.16;;;7.59;100.00
13027;BME280;6580;42.680;23.324;2023-04-03T04:25:31;94650.09;;;7.77;100.00
13027;BME280;6580;42.680;23.324;2023-04-03T04:28:17;94647.41;;;7.94;100.00
13027;BME280;6580;42.680;23.324;2023-04-03T04:31:03;94636.28;;;7.91;100.00
13027;BME280;6580;42.680;23.324;2023-04-03T04:33:48;94646.63;;;8.02;100.00
13027;BME280;6580;42.680;23.324;2023-04-03T04:36:35;94648.28;;;8.02;100.00
13027;BME280;6580;42.680;23.324;2023-04-03T04:39:21;94653.41;;;8.04;100.00
13027;BME280;6580;42.680;23.324;2023-04-03T04:42:08;94656.38;;;8.01;100.00
13027;BME280;6580;42.680;23.324;2023-04-03T04:44:56;94659.59;;;8.12;97.93
13027;BME280;6580;42.680;23.324;2023-04-03T04:47:42;94663.50;;;8.18;97.82
13027;BME280;6580;42.680;23.324;2023-04-03T04:50:28;94662.59;;;8.35;99.65
13027;BME280;6580;42.680;23.324;2023-04-03T04:53:16;94666.34;;;8.24;98.53
13027;BME280;6580;42.680;23.324;2023-04-03T04:56:03;94665.50;;;8.57;97.10
13027;BME280;6580;42.680;23.324;2023-04-03T04:58:49;94655.56;;;8.59;95.31
13027;BME280;6580;42.680;23.324;2023-04-03T05:01:35;94643.34;;;8.33;96.51
13027;BME280;6580;42.680;23.324;2023-04-03T05:04:20;94663.00;;;8.56;97.19
13027;BME280;6580;42.680;23.324;2023-04-03T05:07:06;94672.59;;;8.49;99.36
13027;BME280;6580;42.680;23.324;2023-04-03T05:09:53;94666.81;;;8.45;99.55
13027;BME280;6580;42.680;23.324;2023-04-03T05:12:40;94687.41;;;8.59;98.81
13027;BME280;6580;42.680;23.324;2023-04-03T05:15:25;94675.03;;;8.76;95.97
13027;BME280;6580;42.680;23.324;2023-04-03T05:18:11;94687.84;;;8.80;96.19
13027;BME280;6580;42.680;23.324;2023-04-03T05:20:57;94696.91;;;9.11;93.70
13027;BME280;6580;42.680;23.324;2023-04-03T05:23:43;94701.72;;;9.07;93.15
13027;BME280;6580;42.680;23.324;2023-04-03T05:26:32;94689.88;;;9.02;93.65
13027;BME280;6580;42.680;23.324;2023-04-03T05:29:17;94689.56;;;9.05;94.00
13027;BME280;6580;42.680;23.324;2023-04-03T05:32:03;94651.06;;;9.09;92.03
13027;BME280;6580;42.680;23.324;2023-04-03T05:34:49;94682.63;;;9.12;91.69
13027;BME280;6580;42.680;23.324;2023-04-03T05:37:36;94696.91;;;9.11;91.74
13027;BME280;6580;42.680;23.324;2023-04-03T05:40:22;94680.34;;;9.33;89.75
13027;BME280;6580;42.680;23.324;2023-04-03T05:43:10;94687.63;;;9.23;89.24
13027;BME280;6580;42.680;23.324;2023-04-03T05:45:56;94688.47;;;9.31;90.69
13027;BME280;6580;42.680;23.324;2023-04-03T05:48:43;94685.00;;;9.47;89.36
13027;BME280;6580;42.680;23.324;2023-04-03T05:51:35;94666.91;;;9.66;87.01
13027;BME280;6580;42.680;23.324;2023-04-03T05:54:26;94677.41;;;9.92;86.59
13027;BME280;6580;42.680;23.324;2023-04-03T05:57:12;94670.91;;;10.02;84.95
13027;BME280;6580;42.680;23.324;2023-04-03T06:00:00;94671.28;;;9.99;84.35
13027;BME280;6580;42.680;23.324;2023-04-03T06:02:45;94670.56;;;9.73;85.75
13027;BME280;6580;42.680;23.324;2023-04-03T06:05:34;94654.78;;;9.72;85.59
13027;BME280;6580;42.680;23.324;2023-04-03T06:08:20;94660.06;;;9.96;85.05
13027;BME280;6580;42.680;23.324;2023-04-03T06:11:05;94645.97;;;9.95;83.80
13027;BME280;6580;42.680;23.324;2023-04-03T06:13:52;94649.28;;;10.13;83.31
13027;BME280;6580;42.680;23.324;2023-04-03T06:16:39;94661.38;;;10.31;81.98
13027;BME280;6580;42.680;23.324;2023-04-03T06:19:25;94642.06;;;10.37;81.63
13027;BME280;6580;42.680;23.324;2023-04-03T06:22:10;94631.63;;;10.36;80.83
13027;BME280;6580;42.680;23.324;2023-04-03T06:24:57;94643.06;;;10.36;80.67
13027;BME280;6580;42.680;23.324;2023-04-03T06:27:42;94644.56;;;10.39;79.35
13027;BME280;6580;42.680;23.324;2023-04-03T06:30:28;94653.78;;;10.67;78.38
13027;BME280;6580;42.680;23.324;2023-04-03T06:33:16;94633.06;;;10.85;75.65
13027;BME280;6580;42.680;23.324;2023-04-03T06:36:05;94648.72;;;11.18;74.87
13027;BME280;6580;42.680;23.324;2023-04-03T06:38:56;94665.84;;;10.85;75.34
13027;BME280;6580;42.680;23.324;2023-04-03T06:41:45;94663.31;;;11.00;75.60
13027;BME280;6580;42.680;23.324;2023-04-03T06:44:31;94663.41;;;10.76;77.36
13027;BME280;6580;42.680;23.324;2023-04-03T06:47:18;94670.41;;;11.07;76.94
13027;BME280;6580;42.680;23.324;2023-04-03T06:50:06;94665.50;;;10.96;76.60
13027;BME280;6580;42.680;23.324;2023-04-03T06:52:52;94661.03;;;10.89;77.29
13027;BME280;6580;42.680;23.324;2023-04-03T06:55:41;94663.94;;;10.71;77.82
13027;BME280;6580;42.680;23.324;2023-04-03T06:58:26;94658.72;;;10.31;79.26
13027;BME280;6580;42.680;23.324;2023-04-03T07:01:18;94677.50;;;10.84;78.74
13027;BME280;6580;42.680;23.324;2023-04-03T07:04:04;94671.63;;;10.97;77.33
13027;BME280;6580;42.680;23.324;2023-04-03T07:06:54;94670.75;;;11.34;74.95
13027;BME280;6580;42.680;23.324;2023-04-03T07:09:41;94661.38;;;11.46;74.68
13027;BME280;6580;42.680;23.324;2023-04-03T07:12:27;94656.19;;;11.45;73.93
13027;BME280;6580;42.680;23.324;2023-04-03T07:15:16;94657.84;;;11.23;76.02
13027;BME280;6580;42.680;23.324;2023-04-03T07:18:03;94651.00;;;11.74;73.79
13027;BME280;6580;42.680;23.324;2023-04-03T07:20:50;94647.53;;;12.10;70.13
13027;BME280;6580;42.680;23.324;2023-04-03T07:23:37;94648.84;;;12.14;71.21
13027;BME280;6580;42.680;23.324;2023-04-03T07:26:24;94640.22;;;12.41;69.30
13027;BME280;6580;42.680;23.324;2023-04-03T07:29:10;94636.56;;;12.71;66.61
13027;BME280;6580;42.680;23.324;2023-04-03T07:31:58;94626.22;;;12.97;65.58
13027;BME280;6580;42.680;23.324;2023-04-03T07:34:44;94642.53;;;13.02;64.94
13027;BME280;6580;42.680;23.324;2023-04-03T07:37:31;94617.81;;;12.85;65.07
13027;BME280;6580;42.680;23.324;2023-04-03T07:40:22;94633.97;;;12.63;65.63
13027;BME280;6580;42.680;23.324;2023-04-03T07:43:08;94625.00;;;13.14;65.93
13027;BME280;6580;42.680;23.324;2023-04-03T07:45:53;94624.09;;;13.63;62.10
13027;BME280;6580;42.680;23.324;2023-04-03T07:48:39;94619.38;;;13.44;62.14
13027;BME280;6580;42.680;23.324;2023-04-03T07:51:24;94609.94;;;13.27;61.71
13027;BME280;6580;42.680;23.324;2023-04-03T07:54:12;94616.06;;;13.84;60.37
13027;BME280;6580;42.680;23.324;2023-04-03T07:56:59;94613.84;;;13.66;60.29
13027;BME280;6580;42.680;23.324;2023-04-03T07:59:45;94612.91;;;13.53;61.03
13027;BME280;6580;42.680;23.324;2023-04-03T08:02:30;94610.38;;;13.30;60.78
13027;BME280;6580;42.680;23.324;2023-04-03T08:05:17;94606.97;;;12.87;62.77
13027;BME280;6580;42.680;23.324;2023-04-03T08:08:03;94605.53;;;13.19;62.76
13027;BME280;6580;42.680;23.324;2023-04-03T08:10:52;94576.69;;;13.15;61.20
13027;BME280;6580;42.680;23.324;2023-04-03T08:13:39;94593.41;;;13.03;62.35
13027;BME280;6580;42.680;23.324;2023-04-03T08:16:26;94605.28;;;13.35;60.80
13027;BME280;6580;42.680;23.324;2023-04-03T08:19:11;94591.38;;;13.05;61.50
13027;BME280;6580;42.680;23.324;2023-04-03T08:21:59;94602.00;;;12.69;62.62
13027;BME280;6580;42.680;23.324;2023-04-03T08:24:47;94598.88;;;12.80;62.69
13027;BME280;6580;42.680;23.324;2023-04-03T08:27:37;94599.06;;;12.35;65.59
13027;BME280;6580;42.680;23.324;2023-04-03T08:30:24;94601.41;;;13.17;63.21
13027;BME280;6580;42.680;23.324;2023-04-03T08:33:10;94600.06;;;13.69;60.88
13027;BME280;6580;42.680;23.324;2023-04-03T08:35:55;94595.06;;;14.08;58.55
13027;BME280;6580;42.680;23.324;2023-04-03T08:38:41;94596.97;;;13.87;58.76
13027;BME280;6580;42.680;23.324;2023-04-03T08:41:31;94579.88;;;14.36;57.84
13027;BME280;6580;42.680;23.324;2023-04-03T08:44:25;94570.22;;;14.41;57.80
13027;BME280;6580;42.680;23.324;2023-04-03T08:47:20;94564.50;;;14.17;57.95
13027;BME280;6580;42.680;23.324;2023-04-03T08:50:13;94569.09;;;14.29;58.39
13027;BME280;6580;42.680;23.324;2023-04-03T08:53:01;94572.59;;;14.30;59.24
13027;BME280;6580;42.680;23.324;2023-04-03T08:55:51;94565.66;;;14.76;56.97
13027;BME280;6580;42.680;23.324;2023-04-03T08:58:43;94562.75;;;14.71;55.95
13027;BME280;6580;42.680;23.324;2023-04-03T09:01:36;94566.16;;;14.18;57.27
13027;BME280;6580;42.680;23.324;2023-04-03T09:04:26;94551.94;;;14.58;56.86
13027;BME280;6580;42.680;23.324;2023-04-03T09:07:16;94547.13;;;14.87;54.91
13027;BME280;6580;42.680;23.324;2023-04-03T09:10:06;94521.72;;;14.77;54.60
13027;BME280;6580;42.680;23.324;2023-04-03T09:12:59;94514.16;;;14.87;54.46
13027;BME280;6580;42.680;23.324;2023-04-03T09:15:45;94529.00;;;14.89;53.43
13027;BME280;6580;42.680;23.324;2023-04-03T09:18:33;94534.28;;;14.70;54.92
13027;BME280;6580;42.680;23.324;2023-04-03T09:21:27;94535.72;;;14.66;55.31
13027;BME280;6580;42.680;23.324;2023-04-03T09:24:17;94525.63;;;14.68;54.92
13027;BME280;6580;42.680;23.324;2023-04-03T09:27:05;94516.13;;;15.25;53.64
13027;BME280;6580;42.680;23.324;2023-04-03T09:29:53;94508.56;;;15.54;51.75
13027;BME280;6580;42.680;23.324;2023-04-03T09:32:40;94516.19;;;15.77;51.19
13027;BME280;6580;42.680;23.324;2023-04-03T09:35:28;94514.13;;;15.46;50.58
13027;BME280;6580;42.680;23.324;2023-04-03T09:38:20;94490.97;;;15.39;50.86
13027;BME280;6580;42.680;23.324;2023-04-03T09:41:09;94506.50;;;15.95;49.23
13027;BME280;6580;42.680;23.324;2023-04-03T09:43:59;94502.34;;;16.31;49.25
13027;BME280;6580;42.680;23.324;2023-04-03T09:46:47;94500.25;;;16.27;48.71
13027;BME280;6580;42.680;23.324;2023-04-03T09:49:33;94506.09;;;15.85;49.91
13027;BME280;6580;42.680;23.324;2023-04-03T09:52:23;94498.03;;;16.05;50.08
13027;BME280;6580;42.680;23.324;2023-04-03T09:55:14;94488.31;;;15.71;51.09
13027;BME280;6580;42.680;23.324;2023-04-03T09:58:02;94481.72;;;15.87;50.08
13027;BME280;6580;42.680;23.324;2023-04-03T10:00:54;94493.28;;;15.55;50.87
13027;BME280;6580;42.680;23.324;2023-04-03T10:03:39;94490.91;;;15.13;52.22
13027;BME280;6580;42.680;23.324;2023-04-03T10:06:32;94486.09;;;14.83;53.19
13027;BME280;6580;42.680;23.324;2023-04-03T10:09:21;94485.72;;;14.99;53.40
13027;BME280;6580;42.680;23.324;2023-04-03T10:12:09;94490.91;;;15.07;53.30
13027;BME280;6580;42.680;23.324;2023-04-03T10:14:57;94494.34;;;14.81;53.37
13027;BME280;6580;42.680;23.324;2023-04-03T10:17:50;94487.34;;;14.40;55.51
13027;BME280;6580;42.680;23.324;2023-04-03T10:20:42;94480.03;;;14.55;56.16
13027;BME280;6580;42.680;23.324;2023-04-03T10:23:33;94485.13;;;14.50;56.66
13027;BME280;6580;42.680;23.324;2023-04-03T10:26:32;94477.19;;;14.76;55.96
13027;BME280;6580;42.680;23.324;2023-04-03T10:29:30;94472.19;;;14.60;56.12
13027;BME280;6580;42.680;23.324;2023-04-03T10:32:40;94470.53;;;14.59;56.07
13027;BME280;6580;42.680;23.324;2023-04-03T10:35:39;94468.94;;;14.24;57.68
13027;BME280;6580;42.680;23.324;2023-04-03T10:38:38;94453.72;;;14.31;57.61
13027;BME280;6580;42.680;23.324;2023-04-03T10:41:35;94460.22;;;14.56;57.02
13027;BME280;6580;42.680;23.324;2023-04-03T10:44:35;94453.00;;;14.50;55.90
13027;BME280;6580;42.680;23.324;2023-04-03T10:47:24;94450.81;;;14.26;56.59
13027;BME280;6580;42.680;23.324;2023-04-03T10:50:36;94452.47;;;14.27;56.47
13027;BME280;6580;42.680;23.324;2023-04-03T10:53:30;94451.09;;;14.44;55.53
13027;BME280;6580;42.680;23.324;2023-04-03T10:56:21;94442.16;;;14.24;56.54
13027;BME280;6580;42.680;23.324;2023-04-03T10:59:21;94449.22;;;14.38;55.55
13027;BME280;6580;42.680;23.324;2023-04-03T11:02:18;94452.84;;;14.24;57.04
13027;BME280;6580;42.680;23.324;2023-04-03T11:05:15;94446.72;;;14.30;58.33
13027;BME280;6580;42.680;23.324;2023-04-03T11:08:09;94460.75;;;14.38;58.37
13027;BME280;6580;42.680;23.324;2023-04-03T11:10:59;94463.16;;;14.21;61.38
13027;BME280;6580;42.680;23.324;2023-04-03T11:13:49;94463.63;;;14.03;71.00
13027;BME280;6580;42.680;23.324;2023-04-03T11:16:42;94467.97;;;13.49;68.72
13027;BME280;6580;42.680;23.324;2023-04-03T11:19:35;94471.06;;;13.46;71.17
13027;BME280;6580;42.680;23.324;2023-04-03T11:22:28;94483.22;;;13.07;75.81
13027;BME280;6580;42.680;23.324;2023-04-03T11:25:21;94468.47;;;12.90;82.67
13027;BME280;6580;42.680;23.324;2023-04-03T11:28:13;94478.72;;;13.08;86.12
13027;BME280;6580;42.680;23.324;2023-04-03T11:31:07;94473.13;;;13.23;87.27
13027;BME280;6580;42.680;23.324;2023-04-03T11:34:05;94479.91;;;13.05;89.96
13027;BME280;6580;42.680;23.324;2023-04-03T11:36:56;94468.63;;;12.89;98.08
13027;BME280;6580;42.680;23.324;2023-04-03T11:39:52;94470.19;;;13.18;100.00
13027;BME280;6580;42.680;23.324;2023-04-03T11:42:42;94472.22;;;13.17;99.46
13027;BME280;6580;42.680;23.324;2023-04-03T11:45:36;94476.06;;;13.08;100.00
13027;BME280;6580;42.680;23.324;2023-04-03T11:48:50;94462.81;;;12.64;100.00
13027;BME280;6580;42.680;23.324;2023-04-03T11:51:45;94475.50;;;12.41;100.00
13027;BME280;6580;42.680;23.324;2023-04-03T11:54:48;94482.56;;;12.49;100.00
13027;BME280;6580;42.680;23.324;2023-04-03T11:57:44;94481.78;;;12.19;100.00
13027;BME280;6580;42.680;23.324;2023-04-03T12:00:55;94482.97;;;11.74;100.00
13027;BME280;6580;42.680;23.324;2023-04-03T12:03:57;94481.41;;;11.94;100.00
13027;BME280;6580;42.680;23.324;2023-04-03T12:07:08;94485.09;;;12.07;100.00
13027;BME280;6580;42.680;23.324;2023-04-03T12:10:01;94494.22;;;11.98;100.00
13027;BME280;6580;42.680;23.324;2023-04-03T12:12:57;94494.00;;;11.85;100.00
13027;BME280;6580;42.680;23.324;2023-04-03T12:15:51;94498.78;;;11.75;100.00
13027;BME280;6580;42.680;23.324;2023-04-03T12:18:41;94486.47;;;11.74;100.00
13027;BME280;6580;42.680;23.324;2023-04-03T12:22:09;94486.47;;;11.74;100.00
13027;BME280;6580;42.680;23.324;2023-04-03T12:24:57;94480.59;;;11.64;100.00
13027;BME280;6580;42.680;23.324;2023-04-03T12:27:45;94484.72;;;11.67;100.00
13027;BME280;6580;42.680;23.324;2023-04-03T12:30:41;94477.91;;;11.64;100.00
13027;BME280;6580;42.680;23.324;2023-04-03T12:33:36;94483.53;;;11.47;100.00
13027;BME280;6580;42.680;23.324;2023-04-03T12:36:30;94479.03;;;11.47;100.00
13027;BME280;6580;42.680;23.324;2023-04-03T12:39:43;94481.09;;;11.23;100.00
13027;BME280;6580;42.680;23.324;2023-04-03T12:43:01;94470.41;;;11.09;100.00
13027;BME280;6580;42.680;23.324;2023-04-03T12:45:52;94468.97;;;11.20;100.00
13027;BME280;6580;42.680;23.324;2023-04-03T12:48:51;94464.66;;;11.19;100.00
13027;BME280;6580;42.680;23.324;2023-04-03T12:51:39;94452.63;;;11.38;100.00
13027;BME280;6580;42.680;23.324;2023-04-03T12:54:29;94457.75;;;11.25;100.00
13027;BME280;6580;42.680;23.324;2023-04-03T12:57:19;94451.63;;;11.02;100.00
13027;BME280;6580;42.680;23.324;2023-04-03T13:00:31;94462.13;;;11.04;100.00
13027;BME280;6580;42.680;23.324;2023-04-03T13:03:36;94468.94;;;10.84;100.00
13027;BME280;6580;42.680;23.324;2023-04-03T13:06:26;94466.84;;;10.94;100.00
13027;BME280;6580;42.680;23.324;2023-04-03T13:09:19;94460.28;;;10.82;100.00
13027;BME280;6580;42.680;23.324;2023-04-03T13:12:12;94460.91;;;10.92;100.00
13027;BME280;6580;42.680;23.324;2023-04-03T13:15:00;94454.09;;;10.67;100.00
13027;BME280;6580;42.680;23.324;2023-04-03T13:18:23;94448.81;;;10.59;100.00
13027;BME280;6580;42.680;23.324;2023-04-03T13:21:14;94476.38;;;10.66;100.00
13027;BME280;6580;42.680;23.324;2023-04-03T13:24:12;94453.31;;;10.58;100.00
13027;BME280;6580;42.680;23.324;2023-04-03T13:26:59;94469.09;;;10.60;100.00
13027;BME280;6580;42.680;23.324;2023-04-03T13:29:49;94455.81;;;10.29;100.00
13027;BME280;6580;42.680;23.324;2023-04-03T13:32:35;94465.09;;;10.33;100.00
13027;BME280;6580;42.680;23.324;2023-04-03T13:35:37;94463.22;;;10.42;100.00
13027;BME280;6580;42.680;23.324;2023-04-03T13:38:26;94469.50;;;10.49;100.00
13027;BME280;6580;42.680;23.324;2023-04-03T13:41:24;94473.75;;;10.35;100.00
13027;BME280;6580;42.680;23.324;2023-04-03T13:48:15;94465.53;;;10.14;100.00
13027;BME280;6580;42.680;23.324;2023-04-03T13:51:16;94438.97;;;9.99;100.00
13027;BME280;6580;42.680;23.324;2023-04-03T13:54:16;94445.56;;;10.18;100.00
13027;BME280;6580;42.680;23.324;2023-04-03T14:00:37;94445.34;;;10.28;100.00
13027;BME280;6580;42.680;23.324;2023-04-03T14:03:25;94448.00;;;10.28;100.00
13027;BME280;6580;42.680;23.324;2023-04-03T14:06:14;94441.59;;;10.14;100.00
13027;BME280;6580;42.680;23.324;2023-04-03T14:09:00;94439.56;;;9.78;100.00
13027;BME280;6580;42.680;23.324;2023-04-03T14:11:47;94435.53;;;9.90;100.00
13027;BME280;6580;42.680;23.324;2023-04-03T14:14:35;94450.06;;;10.18;100.00
13027;BME280;6580;42.680;23.324;2023-04-03T14:17:25;94452.22;;;10.14;100.00
13027;BME280;6580;42.680;23.324;2023-04-03T14:20:15;94451.44;;;10.06;100.00
13027;BME280;6580;42.680;23.324;2023-04-03T14:23:03;94441.44;;;10.16;100.00
13027;BME280;6580;42.680;23.324;2023-04-03T14:25:48;94434.56;;;10.21;100.00
13027;BME280;6580;42.680;23.324;2023-04-03T14:28:35;94435.78;;;10.41;100.00
13027;BME280;6580;42.680;23.324;2023-04-03T14:31:20;94437.31;;;10.36;100.00
13027;BME280;6580;42.680;23.324;2023-04-03T14:34:06;94420.03;;;10.10;100.00
13027;BME280;6580;42.680;23.324;2023-04-03T14:36:52;94439.13;;;10.05;100.00
13027;BME280;6580;42.680;23.324;2023-04-03T14:39:41;94436.91;;;10.16;100.00
13027;BME280;6580;42.680;23.324;2023-04-03T14:42:29;94436.31;;;10.07;100.00
13027;BME280;6580;42.680;23.324;2023-04-03T14:45:15;94429.16;;;10.07;100.00
13027;BME280;6580;42.680;23.324;2023-04-03T14:48:09;94429.78;;;10.17;100.00
13027;BME280;6580;42.680;23.324;2023-04-03T14:50:57;94425.47;;;10.16;100.00
13027;BME280;6580;42.680;23.324;2023-04-03T14:53:44;94420.84;;;10.10;100.00
13027;BME280;6580;42.680;23.324;2023-04-03T14:56:31;94414.53;;;10.03;100.00
13027;BME280;6580;42.680;23.324;2023-04-03T14:59:17;94419.84;;;10.11;100.00
13027;BME280;6580;42.680;23.324;2023-04-03T15:02:27;94412.38;;;9.99;100.00
13027;BME280;6580;42.680;23.324;2023-04-03T15:05:13;94404.88;;;10.10;100.00
13027;BME280;6580;42.680;23.324;2023-04-03T15:08:02;94383.91;;;9.77;100.00